Terminal Aerodrome Forecast
Issued by NWS

Home | Current Version | Previous Version | Text Only | Print | Product List | Glossary On
Versions: 1 2 3 4 5 6 7 8 9 10 11 12 13 14 15 16 17 18 19 20 21
000
FTUS43 KGRB 292000 AAA
TAFATW
TAF AMD
KATW 292051Z 2921/3018 32016G22KT P6SM OVC035
     FM300000 33016G23KT P6SM OVC030
     FM300300 33014KT P6SM SCT025
     FM300900 33009KT P6SM FEW020 SCT250
     FM301500 32006KT P6SM FEW020 SCT090 BKN200=

USA.gov is the U.S. government's official web portal to all federal, state and local government web resources and services.